Time;durP1;ratioP1;P1;durP2;ratioP2;P2;SDS_P1;SDS_P2;PMS_P1;PMS_P2;Temp;Humidity;BMP_temperature;BMP_pressure;BME280_temperature;BME280_humidity;BME280_pressure;Samples;Min_cycle;Max_cycle;Signal;HPM_P1;HPM_P2
2021/11/27 00:00:56;;;;;;;;;31.50;28.75;;;;;-147.17;100.00;50371.56;5024649;28;52673;-67
2021/11/27 00:03:21;;;;;;;;;7.00;6.00;;;;;-147.17;100.00;50383.38;5025493;28;51312;-68
2021/11/27 00:05:48;;;;;;;;;8.00;8.00;;;;;-147.17;100.00;50353.84;5021777;28;51785;-67
2021/11/27 00:08:15;;;;;;;;;6.75;6.25;;;;;-147.17;100.00;50371.56;5021988;28;51180;-66
2021/11/27 00:10:45;;;;;;;;;7.25;6.00;;;;;-147.17;100.00;50387.31;5022585;28;51271;-66
2021/11/27 00:13:11;;;;;;;;;6.00;3.00;;;;;-147.17;100.00;50369.59;5020861;28;51141;-66
2021/11/27 00:15:37;;;;;;;;;3.75;3.25;;;;;-147.17;100.00;50391.25;5024480;28;51394;-69
2021/11/27 00:18:04;;;;;;;;;7.50;6.75;;;;;-147.17;100.00;50403.06;5023110;28;51179;-62
2021/11/27 00:20:36;;;;;;;;;6.25;4.50;;;;;-147.17;100.00;50385.34;5023100;28;51350;-63
2021/11/27 00:23:02;;;;;;;;;7.25;6.00;;;;;-147.17;100.00;50393.22;5018129;28;51260;-63
2021/11/27 00:25:27;;;;;;;;;9.00;8.00;;;;;-147.17;100.00;50379.44;5021701;28;51917;-63
2021/11/27 00:27:52;;;;;;;;;6.75;6.75;;;;;-147.17;100.00;50399.13;5027863;28;51331;-64
2021/11/27 00:30:23;;;;;;;;;6.50;6.00;;;;;-147.17;100.00;50387.31;5026795;28;51220;-65
2021/11/27 00:32:48;;;;;;;;;4.00;4.00;;;;;-147.17;100.00;50381.41;5026688;28;52885;-66
2021/11/27 00:35:14;;;;;;;;;5.50;5.50;;;;;-147.17;100.00;50355.81;5025888;28;51960;-69
2021/11/27 00:37:40;;;;;;;;;10.25;8.75;;;;;-147.17;100.00;50387.31;5030308;28;51158;-66
2021/11/27 00:40:09;;;;;;;;;8.25;7.00;;;;;-147.17;100.00;50359.75;5027550;28;51211;-66
2021/11/27 00:42:34;;;;;;;;;13.50;11.50;;;;;-147.17;100.00;50401.09;5024907;28;51331;-66
2021/11/27 00:45:00;;;;;;;;;6.50;6.00;;;;;-147.17;100.00;50391.25;5024324;28;51353;-66
2021/11/27 00:47:26;;;;;;;;;3.75;2.00;;;;;-147.17;100.00;50438.50;5025911;28;51487;-65
2021/11/27 00:49:53;;;;;;;;;6.00;6.00;;;;;-147.17;100.00;50393.22;5027919;28;51288;-67
2021/11/27 00:52:22;;;;;;;;;7.25;7.00;;;;;-147.17;100.00;50403.06;5028863;28;51077;-68
2021/11/27 00:54:48;;;;;;;;;19.00;17.50;;;;;-147.17;100.00;50403.06;5032160;28;51095;-63
2021/11/27 00:57:14;;;;;;;;;7.50;7.50;;;;;-147.17;100.00;50408.97;5030019;28;51101;-65
2021/11/27 00:59:39;;;;;;;;;7.25;6.00;;;;;-147.17;100.00;50387.31;5026949;28;51864;-64
2021/11/27 01:02:05;;;;;;;;;3.50;3.00;;;;;-147.17;100.00;50395.19;5023849;28;51879;-63
2021/11/27 01:04:31;;;;;;;;;3.50;3.00;;;;;-147.17;100.00;50391.25;5030425;28;51556;-64
2021/11/27 01:06:56;;;;;;;;;4.00;2.50;;;;;-147.17;100.00;50379.44;5032685;28;50956;-64
2021/11/27 01:09:22;;;;;;;;;4.00;3.00;;;;;-147.17;100.00;50424.72;5035060;28;51071;-65
2021/11/27 01:11:51;;;;;;;;;3.25;3.00;;;;;-147.17;100.00;50407.00;5036820;28;50912;-65
2021/11/27 01:14:21;;;;;;;;;3.50;2.75;;;;;-147.17;100.00;50418.81;5033777;28;51891;-66
2021/11/27 01:16:52;;;;;;;;;4.25;4.25;;;;;-147.17;100.00;50430.63;5034080;28;51034;-64
2021/11/27 01:19:19;;;;;;;;;2.25;1.75;;;;;-147.17;100.00;50446.38;5034404;28;51142;-66
2021/11/27 01:21:49;;;;;;;;;1.00;0.00;;;;;-147.17;100.00;50434.56;5023298;28;51009;-67
2021/11/27 01:24:17;;;;;;;;;4.25;4.25;;;;;-147.17;100.00;50454.25;5028535;28;52089;-67
2021/11/27 01:26:43;;;;;;;;;1.50;1.50;;;;;-147.17;100.00;50434.56;5052163;28;50992;-66
2021/11/27 01:29:09;;;;;;;;;2.50;1.50;;;;;-147.17;100.00;50460.16;5037379;28;50948;-68
2021/11/27 01:31:35;;;;;;;;;1.00;1.00;;;;;-147.17;100.00;50456.22;5037802;28;50945;-67
2021/11/27 01:34:02;;;;;;;;;1.25;1.00;;;;;-147.17;100.00;50434.56;5034355;28;53597;-66
2021/11/27 01:36:27;;;;;;;;;2.00;2.00;;;;;-147.17;100.00;50466.06;5032427;28;50975;-67
2021/11/27 01:38:53;;;;;;;;;0.67;0.67;;;;;-147.17;100.00;50473.94;5031221;28;51096;-67
2021/11/27 01:41:18;;;;;;;;;1.00;0.33;;;;;-147.17;100.00;50481.81;5026155;28;51177;-67
2021/11/27 01:43:45;;;;;;;;;1.00;1.00;;;;;-147.17;100.00;50458.19;5036206;28;53937;-64
2021/11/27 01:46:11;;;;;;;;;2.00;1.00;;;;;-147.17;100.00;50460.16;5030894;28;51216;-62
2021/11/27 01:48:38;;;;;;;;;2.00;2.00;;;;;-147.17;100.00;50462.13;5028762;28;51363;-61
2021/11/27 01:51:15;;;;;;;;;36.00;31.75;;;;;-147.17;100.00;50454.25;5022885;28;51079;-63
2021/11/27 01:53:44;;;;;;;;;5.00;3.25;;;;;-147.17;100.00;50442.44;5034086;28;51193;-63
2021/11/27 01:56:14;;;;;;;;;2.50;2.50;;;;;-147.17;100.00;50450.31;5026918;28;51453;-62
2021/11/27 01:58:41;;;;;;;;;2.00;2.00;;;;;-147.17;100.00;50454.25;5030334;28;51005;-63
2021/11/27 02:01:17;;;;;;;;;5.50;4.75;;;;;-147.17;100.00;50444.41;5023041;28;50968;-64
2021/11/27 02:03:43;;;;;;;;;9.00;8.00;;;;;-147.17;100.00;50438.50;5021640;28;51047;-66
2021/11/27 02:06:12;;;;;;;;;5.00;3.00;;;;;-147.17;100.00;50416.84;5032233;28;51315;-64
2021/11/27 02:08:40;;;;;;;;;5.50;5.00;;;;;-147.17;100.00;50434.56;5032456;28;51071;-65
2021/11/27 02:11:06;;;;;;;;;17.25;13.75;;;;;-147.17;100.00;50403.06;5034416;28;51014;-65
2021/11/27 02:13:32;;;;;;;;;2.75;1.75;;;;;-147.17;100.00;50414.88;5026322;28;52836;-66
2021/11/27 02:15:58;;;;;;;;;2.75;1.50;;;;;-147.17;100.00;50403.06;5024178;28;51142;-67
2021/11/27 02:18:23;;;;;;;;;2.00;1.00;;;;;-147.17;100.00;50422.75;5037542;28;51070;-67
2021/11/27 02:21:06;;;;;;;;;1.50;0.50;;;;;-147.17;100.00;50410.94;5024282;28;51584;-67
2021/11/27 02:23:33;;;;;;;;;5.50;2.50;;;;;-147.17;100.00;50403.06;5028867;28;51790;-66
2021/11/27 02:25:59;;;;;;;;;3.00;2.00;;;;;-147.17;100.00;50428.66;5038152;28;51081;-68
2021/11/27 02:28:26;;;;;;;;;3.00;3.00;;;;;-147.17;100.00;50418.81;5035456;28;51177;-67
2021/11/27 02:30:52;;;;;;;;;1.50;1.00;;;;;-147.17;100.00;50430.63;5038025;28;50995;-68
2021/11/27 02:33:17;;;;;;;;;0.75;0.50;;;;;-147.17;100.00;50430.63;5031986;28;51684;-70
2021/11/27 02:35:43;;;;;;;;;2.00;2.00;;;;;-147.17;100.00;50420.78;5034539;28;51192;-64
2021/11/27 02:38:08;;;;;;;;;0.50;0.50;;;;;-147.17;100.00;50407.00;5029662;28;52499;-66
2021/11/27 02:40:34;;;;;;;;;1.00;1.00;;;;;-147.17;100.00;50416.84;5024019;28;51485;-66
2021/11/27 02:43:00;;;;;;;;;2.75;1.25;;;;;-147.17;100.00;50430.63;5033678;28;53379;-67
2021/11/27 02:45:26;;;;;;;;;0.00;0.00;;;;;-147.17;100.00;50428.66;5050990;28;51309;-65
2021/11/27 02:47:51;;;;;;;;;1.00;1.00;;;;;-147.17;100.00;50436.53;5029701;28;51186;-67
2021/11/27 02:50:17;;;;;;;;;1.00;1.00;;;;;-147.17;100.00;50426.69;5030585;28;51268;-68
2021/11/27 02:52:43;;;;;;;;;1.00;0.25;;;;;-147.17;100.00;50422.75;5040164;28;53139;-68
2021/11/27 02:55:10;;;;;;;;;0.00;0.00;;;;;-147.17;100.00;50420.78;5039718;28;51331;-68
2021/11/27 02:57:35;;;;;;;;;2.00;2.00;;;;;-147.17;100.00;50436.53;5030284;28;51068;-68
2021/11/27 03:00:05;;;;;;;;;0.25;0.25;;;;;-147.17;100.00;50430.63;5037519;28;51039;-67
2021/11/27 03:02:31;;;;;;;;;1.00;0.00;;;;;-147.17;100.00;50440.47;5031284;28;51078;-69
2021/11/27 03:04:56;;;;;;;;;0.00;0.00;;;;;-147.17;100.00;50434.56;5027642;28;51154;-65
2021/11/27 03:07:22;;;;;;;;;0.75;0.75;;;;;-147.17;100.00;50414.88;5031456;28;51145;-67
2021/11/27 03:09:47;;;;;;;;;1.00;0.00;;;;;-147.17;100.00;50420.78;5052882;28;51307;-67
2021/11/27 03:12:14;;;;;;;;;0.50;0.00;;;;;-147.17;100.00;50418.81;5034496;28;54681;-62
2021/11/27 03:14:39;;;;;;;;;0.00;0.00;;;;;-147.17;100.00;50422.75;5047791;28;51207;-66
2021/11/27 03:17:05;;;;;;;;;0.50;0.50;;;;;-147.17;100.00;50422.75;5031283;28;51068;-63
2021/11/27 03:19:33;;;;;;;;;1.00;0.00;;;;;-147.17;100.00;50438.50;5030915;28;51197;-65
2021/11/27 03:21:59;;;;;;;;;0.50;0.00;;;;;-147.17;100.00;50438.50;5037862;28;51822;-68
2021/11/27 03:24:27;;;;;;;;;0.00;0.00;;;;;-147.17;100.00;50412.91;5034306;28;51168;-67
2021/11/27 03:26:53;;;;;;;;;0.00;0.00;;;;;-147.17;100.00;50416.84;5033122;28;51322;-67
2021/11/27 03:29:19;;;;;;;;;0.50;0.50;;;;;-147.17;100.00;50407.00;5036965;28;50959;-68
2021/11/27 03:31:44;;;;;;;;;1.00;0.00;;;;;-147.17;100.00;50422.75;5037059;28;51204;-67
2021/11/27 03:34:10;;;;;;;;;0.00;0.00;;;;;-147.17;100.00;50424.72;5038640;28;51075;-66
2021/11/27 03:36:35;;;;;;;;;0.00;0.00;;;;;-147.17;100.00;50408.97;5033859;28;51151;-67
2021/11/27 03:39:01;;;;;;;;;0.00;0.00;;;;;-147.17;100.00;50440.47;5031696;28;51095;-62
2021/11/27 03:41:26;;;;;;;;;1.00;1.00;;;;;-147.17;100.00;50373.53;5029785;28;51252;-65
2021/11/27 03:43:52;;;;;;;;;2.00;0.75;;;;;-147.17;100.00;50418.81;5022981;28;50911;-64
2021/11/27 03:46:18;;;;;;;;;1.00;0.00;;;;;-147.17;100.00;50434.56;5033834;28;51296;-64
2021/11/27 03:48:44;;;;;;;;;0.00;0.00;;;;;-147.17;100.00;50416.84;5038228;28;51193;-65
2021/11/27 03:51:16;;;;;;;;;0.00;0.00;;;;;-147.17;100.00;50416.84;5033546;28;51955;-64
2021/11/27 03:53:43;;;;;;;;;0.00;0.00;;;;;-147.17;100.00;50430.63;5023746;28;51211;-65
2021/11/27 03:56:14;;;;;;;;;1.75;1.00;;;;;-147.17;100.00;50428.66;5033161;28;51687;-69
2021/11/27 03:58:40;;;;;;;;;0.00;0.00;;;;;-147.17;100.00;50454.25;5038129;28;51262;-65
2021/11/27 04:01:09;;;;;;;;;1.00;1.00;;;;;-147.17;100.00;50377.47;5023514;28;53073;-67
2021/11/27 04:03:36;;;;;;;;;0.00;0.00;;;;;-147.17;100.00;50367.63;5040878;28;51179;-67
2021/11/27 04:06:03;;;;;;;;;0.00;0.00;;;;;-147.17;100.00;50403.06;5034025;28;51080;-67
2021/11/27 04:08:29;;;;;;;;;0.00;0.00;;;;;-147.17;100.00;50395.19;5039438;28;50908;-64
2021/11/27 04:10:55;;;;;;;;;1.00;0.00;;;;;-147.17;100.00;50434.56;5028032;28;53871;-60
2021/11/27 04:13:21;;;;;;;;;0.00;0.00;;;;;-147.17;100.00;50393.22;5025357;28;51175;-60
2021/11/27 04:15:47;;;;;;;;;1.25;1.00;;;;;-147.17;100.00;50414.88;5023007;28;51086;-64
2021/11/27 04:18:13;;;;;;;;;0.00;0.00;;;;;-147.17;100.00;50414.88;5026733;28;51251;-60
2021/11/27 04:20:39;;;;;;;;;0.00;0.00;;;;;-147.17;100.00;50405.03;5031697;28;51078;-62
2021/11/27 04:23:06;;;;;;;;;0.00;0.00;;;;;-147.17;100.00;50397.16;5032799;28;51233;-61
2021/11/27 04:25:31;;;;;;;;;0.00;0.00;;;;;-147.17;100.00;50405.03;5031769;28;51180;-63
2021/11/27 04:27:57;;;;;;;;;0.00;0.00;;;;;-147.17;100.00;50407.00;5034764;28;50970;-61
2021/11/27 04:30:26;;;;;;;;;0.00;0.00;;;;;-147.17;100.00;50383.38;5024727;28;52339;-64
2021/11/27 04:32:52;;;;;;;;;1.00;0.00;;;;;-147.17;100.00;50412.91;5018010;28;51045;-64
2021/11/27 04:35:22;;;;;;;;;0.00;0.00;;;;;-147.17;100.00;50385.34;5029258;28;50975;-63
2021/11/27 04:37:48;;;;;;;;;0.00;0.00;;;;;-147.17;100.00;50401.09;5020674;28;51015;-65
2021/11/27 04:40:15;;;;;;;;;0.75;0.00;;;;;-147.17;100.00;50403.06;5020600;28;52425;-64
2021/11/27 04:42:41;;;;;;;;;0.00;0.00;;;;;-147.17;100.00;50412.91;5025680;28;52638;-63
2021/11/27 04:45:08;;;;;;;;;0.00;0.00;;;;;-147.17;100.00;50387.31;5022865;28;51302;-65
2021/11/27 04:47:34;;;;;;;;;0.00;0.00;;;;;-147.17;100.00;50379.44;5028717;28;51109;-62
2021/11/27 04:50:00;;;;;;;;;0.00;0.00;;;;;-147.17;100.00;50379.44;5017979;28;50993;-64
2021/11/27 04:52:26;;;;;;;;;0.00;0.00;;;;;-147.17;100.00;50408.97;5027629;28;51174;-63
2021/11/27 04:54:52;;;;;;;;;0.50;0.50;;;;;-147.17;100.00;50399.13;5017553;28;51104;-63
2021/11/27 04:57:18;;;;;;;;;0.00;0.00;;;;;-147.17;100.00;50395.19;5028556;28;51381;-63
2021/11/27 04:59:44;;;;;;;;;0.00;0.00;;;;;-147.17;100.00;50403.06;5029321;28;51145;-62
2021/11/27 05:02:09;;;;;;;;;0.25;0.00;;;;;-147.17;100.00;50381.41;5030189;28;51223;-65
2021/11/27 05:04:36;;;;;;;;;0.00;0.00;;;;;-147.17;100.00;50403.06;5041121;28;51460;-65
2021/11/27 05:07:02;;;;;;;;;0.75;0.25;;;;;-147.17;100.00;50393.22;5018377;28;51077;-66
2021/11/27 05:09:27;;;;;;;;;0.00;0.00;;;;;-147.17;100.00;50418.81;5033947;28;51702;-65
2021/11/27 05:11:53;;;;;;;;;0.00;0.00;;;;;-147.17;100.00;50391.25;5030872;28;51006;-66
2021/11/27 05:14:18;;;;;;;;;0.00;0.00;;;;;-147.17;100.00;50391.25;5030129;28;51328;-65
2021/11/27 05:16:44;;;;;;;;;0.00;0.00;;;;;-147.17;100.00;50399.13;5030504;28;50975;-65
2021/11/27 05:19:09;;;;;;;;;0.25;0.00;;;;;-147.17;100.00;50387.31;5029289;28;52542;-66
2021/11/27 05:21:35;;;;;;;;;0.00;0.00;;;;;-147.17;100.00;50418.81;5032284;28;51219;-64
2021/11/27 05:24:00;;;;;;;;;1.00;1.00;;;;;-147.17;100.00;50399.13;5020959;28;51610;-65
2021/11/27 05:26:25;;;;;;;;;0.75;0.25;;;;;-147.17;100.00;50395.19;5028552;28;51166;-65
2021/11/27 05:28:51;;;;;;;;;1.00;0.00;;;;;-147.17;100.00;50383.38;5029223;28;51510;-62
2021/11/27 05:31:18;;;;;;;;;0.00;0.00;;;;;-147.17;100.00;50379.44;5030414;28;51195;-63
2021/11/27 05:36:18;;;;;;;;;0.75;0.50;;;;;-147.17;100.00;50401.09;5011940;28;50994;-62
2021/11/27 05:38:47;;;;;;;;;0.50;0.50;;;;;-147.17;100.00;50403.06;5034211;28;53711;-63
2021/11/27 05:41:13;;;;;;;;;0.25;0.00;;;;;-147.17;100.00;50389.28;5031447;28;50988;-63
2021/11/27 05:43:39;;;;;;;;;0.00;0.00;;;;;-147.17;100.00;50403.06;5031310;28;50997;-67
2021/11/27 05:46:04;;;;;;;;;0.00;0.00;;;;;-147.17;100.00;50403.06;5031365;28;51176;-63
2021/11/27 05:48:30;;;;;;;;;0.00;0.00;;;;;-147.17;100.00;50367.63;5020644;28;51805;-64
2021/11/27 05:50:55;;;;;;;;;0.00;0.00;;;;;-147.17;100.00;50395.19;5032271;28;51024;-63
2021/11/27 05:53:21;;;;;;;;;0.75;0.75;;;;;-147.17;100.00;50403.06;5031908;28;51188;-64
2021/11/27 05:55:48;;;;;;;;;0.25;0.00;;;;;-147.17;100.00;50363.69;5011223;28;51155;-64
2021/11/27 05:58:15;;;;;;;;;0.00;0.00;;;;;-147.17;100.00;50377.47;5011850;28;51933;-63
2021/11/27 06:00:41;;;;;;;;;0.25;0.25;;;;;-147.17;100.00;50383.38;5034627;28;51142;-64
2021/11/27 06:03:06;;;;;;;;;0.25;0.25;;;;;-147.17;100.00;50365.66;5016615;28;51339;-63
2021/11/27 06:05:32;;;;;;;;;0.00;0.00;;;;;-147.17;100.00;50426.69;5022145;28;51021;-63
2021/11/27 06:07:57;;;;;;;;;0.00;0.00;;;;;-147.17;100.00;50379.44;5032329;28;50927;-63
2021/11/27 06:10:23;;;;;;;;;0.00;0.00;;;;;-147.17;100.00;50383.38;5031114;28;51141;-63
2021/11/27 06:12:48;;;;;;;;;0.00;0.00;;;;;-147.17;100.00;50393.22;5027758;28;51317;-63
2021/11/27 06:15:13;;;;;;;;;0.00;0.00;;;;;-147.17;100.00;50407.00;5031191;28;51094;-63
2021/11/27 06:17:39;;;;;;;;;0.50;0.00;;;;;-147.17;100.00;50375.50;5026756;28;51765;-63
2021/11/27 06:20:05;;;;;;;;;0.00;0.00;;;;;-147.17;100.00;50389.28;5023996;28;50972;-64
2021/11/27 06:22:31;;;;;;;;;1.00;0.25;;;;;-147.17;100.00;50383.38;5026366;28;51249;-64
2021/11/27 06:24:56;;;;;;;;;0.75;0.00;;;;;-147.17;100.00;50391.25;5021425;28;50975;-64
2021/11/27 06:27:22;;;;;;;;;0.75;0.00;;;;;-147.17;100.00;50391.25;5020149;28;51990;-64
2021/11/27 06:29:49;;;;;;;;;0.50;0.50;;;;;-147.17;100.00;50383.38;5034806;28;51196;-64
2021/11/27 06:32:14;;;;;;;;;1.00;1.00;;;;;-147.17;100.00;50412.91;5026763;28;51138;-64
2021/11/27 06:34:40;;;;;;;;;0.00;0.00;;;;;-147.17;100.00;50438.50;5024028;28;51149;-64
2021/11/27 06:37:05;;;;;;;;;1.00;1.00;;;;;-147.17;100.00;50399.13;5015430;28;52024;-64
2021/11/27 06:39:31;;;;;;;;;1.00;1.00;;;;;-147.17;100.00;50434.56;5034312;28;51060;-63
2021/11/27 06:41:57;;;;;;;;;0.25;0.00;;;;;-147.17;100.00;50401.09;5034934;28;51158;-63
2021/11/27 06:44:22;;;;;;;;;1.00;1.00;;;;;-147.17;100.00;50438.50;5027755;28;51037;-63
2021/11/27 06:46:48;;;;;;;;;0.00;0.00;;;;;-147.17;100.00;50387.31;5015011;28;51789;-63
2021/11/27 06:49:14;;;;;;;;;1.00;1.00;;;;;-147.17;100.00;50385.34;5028467;28;51183;-64
2021/11/27 06:51:41;;;;;;;;;0.00;0.00;;;;;-147.17;100.00;50408.97;5034942;28;50957;-63
2021/11/27 06:54:06;;;;;;;;;1.00;1.00;;;;;-147.17;100.00;50407.00;5025432;28;51167;-63
2021/11/27 06:56:32;;;;;;;;;0.75;0.75;;;;;-147.17;100.00;50399.13;5013480;28;51163;-63
2021/11/27 06:58:57;;;;;;;;;1.00;1.00;;;;;-147.17;100.00;50408.97;5045840;28;51159;-63
2021/11/27 07:01:22;;;;;;;;;1.50;1.00;;;;;-147.17;100.00;50371.56;5033953;28;51168;-64
2021/11/27 07:03:48;;;;;;;;;1.00;0.00;;;;;-147.17;100.00;50389.28;5033562;28;51324;-65
2021/11/27 07:06:13;;;;;;;;;1.00;1.00;;;;;-147.17;100.00;50387.31;5033679;28;50958;-65
2021/11/27 07:08:38;;;;;;;;;0.00;0.00;;;;;-147.17;100.00;50359.75;5019725;28;51065;-63
2021/11/27 07:11:04;;;;;;;;;0.00;0.00;;;;;-147.17;100.00;50367.63;5033678;28;51150;-64
2021/11/27 07:13:30;;;;;;;;;0.75;0.25;;;;;-147.17;100.00;50377.47;5045606;28;51126;-64
2021/11/27 07:15:55;;;;;;;;;0.00;0.00;;;;;-147.17;100.00;50391.25;5030712;28;53808;-64
2021/11/27 07:18:21;;;;;;;;;1.00;1.00;;;;;-147.17;100.00;50342.03;5024957;28;51072;-64
2021/11/27 07:20:46;;;;;;;;;1.75;1.00;;;;;-147.17;100.00;50361.72;5034674;28;51081;-64
2021/11/27 07:23:12;;;;;;;;;0.25;0.25;;;;;-147.17;100.00;50347.94;5030804;28;51698;-64
2021/11/27 07:25:38;;;;;;;;;1.00;1.00;;;;;-147.17;100.00;50359.75;5034478;28;51038;-64
2021/11/27 07:28:05;;;;;;;;;0.50;0.50;;;;;-147.17;100.00;50344.00;5032132;28;51251;-64
2021/11/27 07:30:30;;;;;;;;;1.00;1.00;;;;;-147.17;100.00;50336.13;5033002;28;51150;-64
2021/11/27 07:32:56;;;;;;;;;0.00;0.00;;;;;-147.17;100.00;50344.00;5032868;28;51172;-65
2021/11/27 07:35:21;;;;;;;;;2.25;1.75;;;;;-147.17;100.00;50342.03;5018912;28;50994;-64
2021/11/27 07:37:47;;;;;;;;;5.25;4.75;;;;;-147.17;100.00;50359.75;5032363;28;51121;-64
2021/11/27 07:40:12;;;;;;;;;0.50;0.50;;;;;-147.17;100.00;50353.84;5031604;28;51499;-63
2021/11/27 07:42:38;;;;;;;;;1.00;1.00;;;;;-147.17;100.00;50353.84;5018863;28;51093;-65
2021/11/27 07:45:04;;;;;;;;;1.25;1.25;;;;;-147.17;100.00;50355.81;5048910;28;53036;-64
2021/11/27 07:47:30;;;;;;;;;1.75;1.00;;;;;-147.17;100.00;50357.78;5017957;28;51074;-64
2021/11/27 07:49:55;;;;;;;;;1.00;1.00;;;;;-147.17;100.00;50328.25;5033913;28;51115;-65
2021/11/27 07:52:21;;;;;;;;;3.25;3.25;;;;;-147.17;100.00;50328.25;5044762;28;51341;-65
2021/11/27 07:54:49;;;;;;;;;1.75;1.00;;;;;-147.17;100.00;50328.25;5034110;28;50994;-65
2021/11/27 07:57:14;;;;;;;;;1.00;0.00;;;;;-147.17;100.00;50347.94;5017636;28;51067;-64
2021/11/27 07:59:39;;;;;;;;;1.00;0.00;;;;;-147.17;100.00;50330.22;5034111;28;51168;-66
2021/11/27 08:02:05;;;;;;;;;2.50;1.00;;;;;-147.17;100.00;50359.75;5025570;28;51381;-64
2021/11/27 08:04:30;;;;;;;;;0.00;0.00;;;;;-147.17;100.00;50351.88;5033589;28;51031;-64
2021/11/27 08:06:55;;;;;;;;;1.00;0.75;;;;;-147.17;100.00;50330.22;5020265;28;51260;-64
2021/11/27 08:09:21;;;;;;;;;1.00;1.00;;;;;-147.17;100.00;50344.00;5031979;28;51115;-64
2021/11/27 08:11:46;;;;;;;;;1.00;1.00;;;;;-147.17;100.00;50345.97;5030273;28;51296;-63
2021/11/27 08:14:11;;;;;;;;;0.50;0.50;;;;;-147.17;100.00;50284.97;5029127;28;51918;-64
2021/11/27 08:16:37;;;;;;;;;0.00;0.00;;;;;-147.17;100.00;50310.56;5032782;28;51006;-64
2021/11/27 08:19:02;;;;;;;;;2.00;1.00;;;;;-147.17;100.00;50355.81;5031405;28;51054;-64
2021/11/27 08:21:28;;;;;;;;;0.25;0.25;;;;;-147.17;100.00;50328.25;5032497;28;51024;-65
2021/11/27 08:23:54;;;;;;;;;1.00;1.00;;;;;-147.17;100.00;50326.28;5029454;28;53136;-65
2021/11/27 08:26:20;;;;;;;;;1.00;0.00;;;;;-147.17;100.00;50345.97;5033373;28;51221;-65
2021/11/27 08:28:46;;;;;;;;;1.00;1.00;;;;;-147.17;100.00;50342.03;5032774;28;51108;-65
2021/11/27 08:31:11;;;;;;;;;1.50;1.00;;;;;-147.17;100.00;50328.25;5033504;28;51238;-65
2021/11/27 08:33:37;;;;;;;;;1.00;1.00;;;;;-147.17;100.00;50369.59;5029196;28;52252;-64
2021/11/27 08:36:03;;;;;;;;;0.00;0.00;;;;;-147.17;100.00;50345.97;5033537;28;50983;-63
2021/11/27 08:38:30;;;;;;;;;1.00;1.00;;;;;-147.17;100.00;50334.16;5030941;28;51109;-64
2021/11/27 08:40:56;;;;;;;;;2.25;1.75;;;;;-147.17;100.00;50359.75;5032780;28;51173;-65
2021/11/27 08:43:21;;;;;;;;;1.00;1.00;;;;;-147.17;100.00;50344.00;5027301;28;51870;-64
2021/11/27 08:45:49;;;;;;;;;1.00;1.00;;;;;-147.17;100.00;50324.31;5031952;28;51137;-64
2021/11/27 08:48:14;;;;;;;;;1.00;1.00;;;;;-147.17;100.00;50363.69;5031046;28;51189;-63
2021/11/27 08:50:40;;;;;;;;;0.00;0.00;;;;;-147.17;100.00;50387.31;5032384;28;51268;-63
2021/11/27 08:53:05;;;;;;;;;0.00;0.00;;;;;-147.17;100.00;50353.84;5031855;28;51913;-64
2021/11/27 08:55:31;;;;;;;;;1.00;1.00;;;;;-147.17;100.00;50353.84;5030474;28;51028;-65
2021/11/27 08:57:56;;;;;;;;;0.00;0.00;;;;;-147.17;100.00;50351.88;5028727;28;51773;-64
2021/11/27 09:00:21;;;;;;;;;1.00;0.25;;;;;-147.17;100.00;50328.25;5031112;28;50889;-64
2021/11/27 09:02:47;;;;;;;;;2.00;0.00;;;;;-147.17;100.00;50345.97;5025900;28;52019;-64
2021/11/27 09:05:12;;;;;;;;;1.00;1.00;;;;;-147.17;100.00;50363.69;5030752;28;51088;-63
2021/11/27 09:07:39;;;;;;;;;0.00;0.00;;;;;-147.17;100.00;50359.75;5043961;28;51229;-63
2021/11/27 09:10:06;;;;;;;;;1.25;1.00;;;;;-147.17;100.00;50371.56;5023650;28;51237;-63
2021/11/27 09:12:34;;;;;;;;;0.00;0.00;;;;;-147.17;100.00;50347.94;5025124;28;52390;-63
2021/11/27 09:14:59;;;;;;;;;0.00;0.00;;;;;-147.17;100.00;50359.75;5018680;28;51120;-64
2021/11/27 09:17:26;;;;;;;;;0.00;0.00;;;;;-147.17;100.00;50367.63;5028140;28;51075;-64
2021/11/27 09:19:51;;;;;;;;;0.25;0.25;;;;;-147.17;100.00;50340.06;5028511;28;51413;-63
2021/11/27 09:22:17;;;;;;;;;1.00;1.00;;;;;-147.17;100.00;50363.69;5026347;28;53802;-63
2021/11/27 09:24:42;;;;;;;;;0.00;0.00;;;;;-147.17;100.00;50395.19;5030311;28;50999;-64
2021/11/27 09:27:08;;;;;;;;;0.00;0.00;;;;;-147.17;100.00;50383.38;5045755;28;51269;-63
2021/11/27 09:29:35;;;;;;;;;0.75;0.75;;;;;-147.17;100.00;50363.69;5031898;28;51017;-62
2021/11/27 09:32:01;;;;;;;;;1.00;1.00;;;;;-147.17;100.00;50403.06;5026171;28;52405;-63
2021/11/27 09:34:26;;;;;;;;;0.00;0.00;;;;;-147.17;100.00;50359.75;5029834;28;51174;-63
2021/11/27 09:36:52;;;;;;;;;0.00;0.00;;;;;-147.17;100.00;50387.31;5031628;28;51109;-64
2021/11/27 09:39:18;;;;;;;;;0.00;0.00;;;;;-147.17;100.00;50391.25;5029013;28;51177;-62
2021/11/27 09:41:45;;;;;;;;;1.00;1.00;;;;;-147.17;100.00;50361.72;5021341;28;52835;-62
2021/11/27 09:44:13;;;;;;;;;0.00;0.00;;;;;-147.17;100.00;50403.06;5027062;28;51279;-64
2021/11/27 09:46:41;;;;;;;;;0.25;0.00;;;;;-147.17;100.00;50371.56;5031810;28;50924;-62
2021/11/27 09:49:10;;;;;;;;;1.00;1.00;;;;;-147.17;100.00;50357.78;5044011;28;51085;-64
2021/11/27 09:51:38;;;;;;;;;1.00;1.00;;;;;-147.17;100.00;50363.69;5019517;28;51744;-63
2021/11/27 09:54:06;;;;;;;;;0.50;0.00;;;;;-147.17;100.00;50369.59;5024219;28;51032;-64
2021/11/27 09:56:31;;;;;;;;;1.00;0.00;;;;;-147.17;100.00;50381.41;5039904;28;51159;-64
2021/11/27 09:58:58;;;;;;;;;2.25;1.00;;;;;-147.17;100.00;50375.50;5030974;28;51177;-69
2021/11/27 10:01:26;;;;;;;;;1.00;1.00;;;;;-147.17;100.00;50365.66;5014243;28;51847;-65
2021/11/27 10:04:00;;;;;;;;;1.75;1.75;;;;;-147.17;100.00;50357.78;5029335;28;51152;-63
2021/11/27 10:06:28;;;;;;;;;1.75;1.50;;;;;-147.17;100.00;50357.78;5030031;28;51000;-65
2021/11/27 10:08:55;;;;;;;;;1.00;1.00;;;;;-147.17;100.00;50340.06;5030826;28;51279;-64
2021/11/27 10:11:20;;;;;;;;;2.00;2.00;;;;;-147.17;100.00;50344.00;5034285;28;51074;-62
2021/11/27 10:13:45;;;;;;;;;1.75;1.25;;;;;-147.17;100.00;50387.31;5030026;28;51336;-62
2021/11/27 10:16:11;;;;;;;;;2.00;1.00;;;;;-147.17;100.00;50383.38;5022312;28;51079;-65
2021/11/27 10:18:36;;;;;;;;;2.00;1.75;;;;;-147.17;100.00;50403.06;5028482;28;51799;-65
2021/11/27 10:21:15;;;;;;;;;1.00;1.00;;;;;-147.17;100.00;50401.09;5033176;28;52024;-66
2021/11/27 10:23:42;;;;;;;;;1.00;1.00;;;;;-147.17;100.00;50418.81;5032526;28;51163;-66
2021/11/27 10:26:07;;;;;;;;;0.00;0.00;;;;;-147.17;100.00;50391.25;5022514;28;51072;-66
2021/11/27 10:28:33;;;;;;;;;2.00;2.00;;;;;-147.17;100.00;50387.31;5027673;28;51016;-67
2021/11/27 10:31:02;;;;;;;;;1.00;1.00;;;;;-147.17;100.00;50414.88;5022525;28;52299;-68
2021/11/27 10:33:36;;;;;;;;;2.50;1.75;;;;;-147.17;100.00;50399.13;5026564;28;51178;-67
2021/11/27 10:36:13;;;;;;;;;4.25;2.00;;;;;-147.17;100.00;50430.63;5031555;28;51213;-64
2021/11/27 10:38:40;;;;;;;;;1.00;0.00;;;;;-147.17;100.00;50446.38;5035781;28;51208;-66
2021/11/27 10:41:07;;;;;;;;;1.00;1.00;;;;;-147.17;100.00;50434.56;5034882;28;51975;-68
2021/11/27 10:43:34;;;;;;;;;0.00;0.00;;;;;-147.17;100.00;50448.34;5027623;28;51145;-69
2021/11/27 10:46:00;;;;;;;;;1.00;1.00;;;;;-147.17;100.00;50414.88;5031317;28;51143;-67
2021/11/27 10:48:26;;;;;;;;;2.00;2.00;;;;;-147.17;100.00;50428.66;5025004;28;51215;-67
2021/11/27 10:50:59;;;;;;;;;2.75;2.00;;;;;-147.17;100.00;50414.88;5030732;28;51854;-66
2021/11/27 10:53:27;;;;;;;;;2.00;2.00;;;;;-147.17;100.00;50401.09;5028721;28;51167;-66
2021/11/27 10:55:52;;;;;;;;;1.75;1.00;;;;;-147.17;100.00;50418.81;5026176;28;51211;-67
2021/11/27 10:58:19;;;;;;;;;2.25;1.50;;;;;-147.17;100.00;50422.75;5027582;28;51253;-67
2021/11/27 11:00:48;;;;;;;;;3.00;2.75;;;;;-147.17;100.00;50389.28;5024060;28;51808;-67
2021/11/27 11:03:30;;;;;;;;;2.00;2.00;;;;;-147.17;100.00;50408.97;5022278;28;51023;-67
2021/11/27 11:05:58;;;;;;;;;2.00;1.75;;;;;-147.17;100.00;50450.31;5021854;28;50940;-66
2021/11/27 11:08:36;;;;;;;;;1.00;1.00;;;;;-147.17;100.00;50389.28;5024447;28;51062;-67